createdAt,value
2022-12-07T00:01:41.788Z,57.77
2022-12-07T00:04:12.888Z,57.73
2022-12-07T00:06:43.270Z,57.86
2022-12-07T00:09:15.653Z,57.97
2022-12-07T00:11:43.359Z,58.27
2022-12-07T00:14:15.694Z,57.99
2022-12-07T00:16:43.543Z,58.22
2022-12-07T00:19:12.101Z,58.48
2022-12-07T00:21:39.583Z,58.59
2022-12-07T00:24:07.086Z,58.97
2022-12-07T00:26:36.875Z,58.94
2022-12-07T00:29:18.547Z,58.92
2022-12-07T00:31:45.558Z,59.01
2022-12-07T00:34:21.102Z,59.06
2022-12-07T00:36:48.585Z,59.34
2022-12-07T00:39:16.131Z,59.47
2022-12-07T00:41:43.148Z,59.44
2022-12-07T00:44:10.413Z,59.33
2022-12-07T00:46:37.967Z,59.54
2022-12-07T00:49:05.001Z,59.70
2022-12-07T00:51:32.096Z,60.03
2022-12-07T00:53:58.976Z,59.83
2022-12-07T00:56:28.142Z,59.83
2022-12-07T00:58:57.142Z,59.61
2022-12-07T01:01:25.358Z,59.84
2022-12-07T01:03:52.451Z,59.99
2022-12-07T01:06:21.381Z,59.97
2022-12-07T01:08:48.332Z,59.83
2022-12-07T01:11:17.728Z,59.89
2022-12-07T01:13:45.223Z,59.91
2022-12-07T01:16:14.691Z,59.96
2022-12-07T01:18:42.137Z,59.86
2022-12-07T01:21:12.917Z,59.96
2022-12-07T01:23:40.190Z,60.19
2022-12-07T01:26:09.641Z,59.99
2022-12-07T01:28:36.664Z,60.05
2022-12-07T01:31:16.397Z,60.04
2022-12-07T01:33:48.660Z,60.29
2022-12-07T01:36:20.605Z,60.54
2022-12-07T01:38:49.141Z,60.52
2022-12-07T01:41:17.293Z,60.99
2022-12-07T01:44:10.191Z,60.91
2022-12-07T01:46:37.413Z,61.00
2022-12-07T01:49:10.643Z,61.08
2022-12-07T01:51:38.774Z,61.35
2022-12-07T01:54:05.809Z,61.17
2022-12-07T01:56:33.846Z,61.43
2022-12-07T01:59:01.762Z,61.50
2022-12-07T02:01:29.443Z,61.59
2022-12-07T02:03:56.811Z,61.63
2022-12-07T02:06:26.185Z,61.67
2022-12-07T02:08:53.600Z,61.69
2022-12-07T02:11:20.891Z,61.90
2022-12-07T02:13:48.279Z,61.90
2022-12-07T02:16:39.260Z,62.01
2022-12-07T02:19:32.344Z,62.19
2022-12-07T02:22:05.584Z,62.19
2022-12-07T02:24:38.775Z,62.05
2022-12-07T02:27:42.212Z,62.42
2022-12-07T02:30:12.214Z,62.46
2022-12-07T02:33:00.391Z,62.47
2022-12-07T02:35:34.134Z,62.56
2022-12-07T02:38:09.704Z,62.62
2022-12-07T02:40:42.558Z,62.44
2022-12-07T02:43:21.873Z,62.75
2022-12-07T02:45:49.408Z,62.84
2022-12-07T02:48:17.739Z,63.15
2022-12-07T02:50:54.642Z,63.29
2022-12-07T02:53:31.980Z,63.47
2022-12-07T02:56:00.873Z,63.62
2022-12-07T02:58:42.307Z,63.71
2022-12-07T03:01:28.200Z,63.94
2022-12-07T03:04:21.265Z,63.99
2022-12-07T03:06:55.783Z,63.62
2022-12-07T03:09:34.313Z,63.84
2022-12-07T03:12:18.478Z,63.98
2022-12-07T03:14:54.116Z,64.05
2022-12-07T03:17:26.332Z,64.28
2022-12-07T03:19:54.781Z,64.48
2022-12-07T03:22:23.314Z,64.60
2022-12-07T03:24:55.332Z,64.66
2022-12-07T03:27:25.280Z,64.69
2022-12-07T03:30:27.470Z,64.69
2022-12-07T03:33:04.874Z,64.85
2022-12-07T03:35:41.540Z,64.91
2022-12-07T03:38:19.243Z,65.11
2022-12-07T03:40:53.238Z,65.23
2022-12-07T03:43:20.563Z,65.49
2022-12-07T03:46:02.924Z,65.48
2022-12-07T03:48:38.477Z,65.39
2022-12-07T03:51:21.411Z,65.34
2022-12-07T03:53:54.490Z,65.44
2022-12-07T03:56:23.027Z,65.65
2022-12-07T03:58:50.489Z,65.70
2022-12-07T04:01:19.461Z,65.60
2022-12-07T04:03:46.732Z,66.01
2022-12-07T04:06:13.754Z,66.26
2022-12-07T04:08:40.901Z,66.38
2022-12-07T04:11:09.320Z,66.45
2022-12-07T04:13:56.211Z,66.52
2022-12-07T04:16:23.433Z,66.72
2022-12-07T04:18:50.630Z,66.85
2022-12-07T04:21:20.171Z,67.05
2022-12-07T04:23:47.393Z,67.28
2022-12-07T04:26:14.367Z,67.53
2022-12-07T04:28:41.391Z,67.57
2022-12-07T04:31:08.989Z,67.76
2022-12-07T04:33:36.702Z,67.81
2022-12-07T04:36:04.650Z,67.96
2022-12-07T04:38:31.945Z,68.15
2022-12-07T04:40:59.967Z,68.25
2022-12-07T04:43:26.861Z,68.48
2022-12-07T04:45:53.994Z,68.51
2022-12-07T04:48:20.998Z,68.69
2022-12-07T04:50:50.767Z,68.70
2022-12-07T04:53:18.021Z,68.81
2022-12-07T04:55:46.061Z,69.07
2022-12-07T04:58:13.595Z,69.21
2022-12-07T05:00:40.981Z,69.10
2022-12-07T05:03:08.638Z,69.24
2022-12-07T05:05:40.047Z,69.51
2022-12-07T05:08:10.806Z,69.75
2022-12-07T05:10:40.373Z,70.11
2022-12-07T05:13:08.743Z,70.08
2022-12-07T05:15:38.493Z,70.32
2022-12-07T05:18:18.394Z,70.47
2022-12-07T05:21:22.210Z,71.20
2022-12-07T05:24:00.028Z,71.08
2022-12-07T05:26:27.853Z,71.02
2022-12-07T05:28:56.379Z,71.24
2022-12-07T05:31:24.599Z,71.64
2022-12-07T05:33:52.230Z,71.72
2022-12-07T05:36:19.328Z,71.79
2022-12-07T05:38:46.575Z,71.88
2022-12-07T05:41:36.423Z,72.14
2022-12-07T05:44:04.618Z,72.49
2022-12-07T05:46:39.171Z,72.71
2022-12-07T05:49:06.186Z,72.85
2022-12-07T05:51:33.199Z,72.95
2022-12-07T05:54:00.253Z,73.25
2022-12-07T05:56:28.210Z,73.39
2022-12-07T05:59:14.060Z,73.40
2022-12-07T06:01:41.430Z,73.48
2022-12-07T06:04:08.903Z,73.93
2022-12-07T06:06:35.973Z,73.86
2022-12-07T06:09:03.989Z,74.12
2022-12-07T06:14:30.880Z,73.86
2022-12-07T06:16:58.212Z,73.56
2022-12-07T06:19:25.259Z,73.90
2022-12-07T06:21:52.466Z,74.15
2022-12-07T06:24:19.541Z,74.14
2022-12-07T06:26:46.538Z,74.42
2022-12-07T06:29:14.107Z,74.32
2022-12-07T06:31:41.874Z,74.33
2022-12-07T06:34:16.231Z,74.25
2022-12-07T06:36:43.851Z,74.23
2022-12-07T06:39:11.520Z,74.21
2022-12-07T06:44:20.639Z,74.29
2022-12-07T06:46:48.735Z,74.15
2022-12-07T06:49:16.110Z,74.03
2022-12-07T06:51:43.592Z,74.00
2022-12-07T06:54:11.666Z,73.77
2022-12-07T06:56:38.871Z,73.75
2022-12-07T06:59:07.575Z,73.38
2022-12-07T07:01:37.828Z,73.44
2022-12-07T07:04:05.425Z,73.06
2022-12-07T07:06:32.630Z,72.17
2022-12-07T07:09:00.215Z,71.81
2022-12-07T07:11:27.360Z,71.07
2022-12-07T07:13:54.979Z,70.88
2022-12-07T07:16:22.111Z,70.08
2022-12-07T07:18:49.207Z,69.62
2022-12-07T07:21:16.155Z,69.31
2022-12-07T07:23:43.192Z,68.87
2022-12-07T07:26:10.167Z,68.40
2022-12-07T07:28:37.241Z,67.82
2022-12-07T07:31:06.470Z,67.35
2022-12-07T07:33:33.442Z,66.93
2022-12-07T07:36:00.398Z,66.29
2022-12-07T07:38:27.521Z,65.63
2022-12-07T07:40:54.480Z,65.15
2022-12-07T07:43:23.331Z,64.71
2022-12-07T07:45:50.416Z,64.18
2022-12-07T07:48:17.404Z,63.40
2022-12-07T07:50:44.499Z,63.02
2022-12-07T07:53:11.627Z,62.28
2022-12-07T07:55:38.697Z,62.07
2022-12-07T07:58:05.806Z,61.08
2022-12-07T08:00:34.558Z,60.62
2022-12-07T08:03:01.694Z,60.36
2022-12-07T08:05:28.765Z,59.25
2022-12-07T08:07:55.885Z,59.25
2022-12-07T08:10:22.863Z,58.36
2022-12-07T08:13:09.935Z,58.21
2022-12-07T08:15:39.457Z,57.35
2022-12-07T08:20:48.167Z,56.44
2022-12-07T08:23:15.307Z,55.98
2022-12-07T08:25:42.277Z,55.81
2022-12-07T08:28:09.262Z,55.20
2022-12-07T08:30:36.431Z,54.65
2022-12-07T08:33:03.542Z,53.57
2022-12-07T08:35:30.611Z,53.04
2022-12-07T08:37:59.057Z,52.50
2022-12-07T08:40:26.151Z,51.27
2022-12-07T08:42:53.333Z,50.31
2022-12-07T08:45:26.643Z,50.38
2022-12-07T08:48:04.686Z,49.10
2022-12-07T08:50:32.937Z,48.74
2022-12-07T08:53:00.715Z,48.46
2022-12-07T08:55:28.744Z,47.77
2022-12-07T08:57:56.228Z,47.30
2022-12-07T09:00:23.409Z,47.69
2022-12-07T09:02:50.466Z,47.20
2022-12-07T09:05:17.565Z,46.37
2022-12-07T09:07:46.851Z,46.42
2022-12-07T09:10:13.887Z,46.07
2022-12-07T09:12:41.023Z,45.94
2022-12-07T09:15:09.261Z,45.55
2022-12-07T09:17:38.147Z,45.68
2022-12-07T09:20:08.706Z,44.91
2022-12-07T09:22:35.824Z,44.90
2022-12-07T09:25:07.788Z,44.61
2022-12-07T09:27:35.496Z,44.63
2022-12-07T09:30:03.164Z,44.23
2022-12-07T09:32:31.113Z,43.79
2022-12-07T09:34:58.297Z,43.49
2022-12-07T09:37:25.368Z,43.16
2022-12-07T09:39:52.340Z,43.21
2022-12-07T09:42:30.238Z,42.63
2022-12-07T09:44:58.026Z,42.30
2022-12-07T09:47:24.997Z,41.93
2022-12-07T09:49:52.014Z,42.12
2022-12-07T09:52:22.431Z,41.60
2022-12-07T09:54:51.061Z,41.10
2022-12-07T09:57:19.437Z,40.98
2022-12-07T09:59:46.712Z,40.61
2022-12-07T10:02:26.082Z,40.48
2022-12-07T10:04:53.214Z,40.52
2022-12-07T10:07:20.335Z,40.02
2022-12-07T10:09:47.281Z,40.31
2022-12-07T10:15:18.395Z,39.98
2022-12-07T10:17:52.399Z,40.05
2022-12-07T10:20:27.915Z,40.29
2022-12-07T10:22:55.772Z,39.54
2022-12-07T10:25:27.851Z,39.59
2022-12-07T10:28:13.896Z,38.93
2022-12-07T10:31:04.471Z,38.56
2022-12-07T10:33:51.278Z,38.65
2022-12-07T10:36:33.481Z,38.92
2022-12-07T10:39:15.931Z,39.27
2022-12-07T10:42:03.551Z,38.71
2022-12-07T10:44:32.718Z,39.16
2022-12-07T10:47:08.678Z,39.13
2022-12-07T10:49:42.058Z,39.00
2022-12-07T10:55:23.588Z,39.77
2022-12-07T10:58:05.793Z,39.13
2022-12-07T11:00:42.076Z,38.20
2022-12-07T11:03:29.385Z,39.21
2022-12-07T11:06:15.631Z,40.09
2022-12-07T11:09:18.110Z,39.85
2022-12-07T11:12:18.686Z,39.29
2022-12-07T11:14:57.994Z,38.68
2022-12-07T11:17:56.227Z,38.97
2022-12-07T11:20:47.026Z,38.63
2022-12-07T11:23:25.780Z,39.11
2022-12-07T11:26:50.071Z,39.71
2022-12-07T11:29:36.015Z,39.86
2022-12-07T11:32:13.630Z,40.00
2022-12-07T11:34:57.244Z,40.97
2022-12-07T11:37:38.183Z,41.25
2022-12-07T11:40:39.626Z,41.09
2022-12-07T11:43:36.049Z,41.52
2022-12-07T11:46:18.971Z,41.66
2022-12-07T11:49:00.035Z,41.33
2022-12-07T11:51:33.203Z,41.94
2022-12-07T11:54:05.074Z,42.28
2022-12-07T11:56:39.129Z,42.30
2022-12-07T11:59:30.830Z,43.05
2022-12-07T12:02:18.233Z,43.78
2022-12-07T12:05:04.378Z,43.85
2022-12-07T12:10:24.125Z,44.02
2022-12-07T12:16:08.937Z,44.67
2022-12-07T12:19:02.701Z,44.62
2022-12-07T12:21:31.649Z,45.73
2022-12-07T12:24:06.797Z,46.08
2022-12-07T12:26:36.376Z,46.63
2022-12-07T12:29:05.646Z,46.78
2022-12-07T12:31:37.604Z,47.01
2022-12-07T12:34:26.228Z,47.84
2022-12-07T12:36:53.330Z,48.61
2022-12-07T12:39:21.913Z,49.50
2022-12-07T12:41:49.000Z,50.40
2022-12-07T12:44:16.197Z,51.57
2022-12-07T12:46:54.757Z,52.83
2022-12-07T12:49:22.360Z,53.81
2022-12-07T12:51:54.329Z,54.99
2022-12-07T12:54:32.596Z,55.98
2022-12-07T12:57:23.619Z,57.16
2022-12-07T12:59:53.608Z,58.60
2022-12-07T13:02:31.134Z,59.31
2022-12-07T13:05:03.713Z,60.41
2022-12-07T13:07:47.914Z,61.15
2022-12-07T13:10:29.751Z,61.43
2022-12-07T13:13:16.445Z,62.04
2022-12-07T13:15:56.043Z,62.74
2022-12-07T13:18:29.092Z,63.44
2022-12-07T13:21:09.006Z,63.56
2022-12-07T13:23:49.469Z,64.04
2022-12-07T13:26:18.307Z,64.38
2022-12-07T13:29:06.968Z,64.52
2022-12-07T13:31:47.402Z,65.10
2022-12-07T13:34:34.096Z,65.33
2022-12-07T13:37:03.180Z,65.48
2022-12-07T13:39:34.547Z,65.64
2022-12-07T13:42:29.319Z,66.05
2022-12-07T13:45:00.052Z,66.06
2022-12-07T13:47:32.690Z,66.02
2022-12-07T13:50:00.903Z,65.94
2022-12-07T13:52:30.136Z,66.51
2022-12-07T13:55:03.055Z,66.92
2022-12-07T13:57:32.204Z,66.93
2022-12-07T13:59:59.407Z,66.90
2022-12-07T14:02:34.841Z,67.30
2022-12-07T14:05:11.726Z,66.82
2022-12-07T14:07:53.892Z,66.96
2022-12-07T14:10:50.169Z,67.28
2022-12-07T14:13:40.628Z,67.54
2022-12-07T14:16:36.288Z,67.70
2022-12-07T14:19:48.742Z,67.85
2022-12-07T14:22:21.436Z,68.08
2022-12-07T14:24:48.672Z,67.96
2022-12-07T14:27:20.920Z,68.23
2022-12-07T14:29:48.659Z,68.45
2022-12-07T14:32:29.376Z,68.64
2022-12-07T14:35:01.599Z,68.58
2022-12-07T14:37:31.154Z,68.49
2022-12-07T14:39:58.187Z,68.86
2022-12-07T14:42:28.440Z,69.00
2022-12-07T14:44:56.962Z,68.74
2022-12-07T14:50:17.203Z,69.36
2022-12-07T14:55:44.378Z,69.16
2022-12-07T14:58:16.048Z,69.49
2022-12-07T15:00:43.117Z,69.77
2022-12-07T15:03:10.405Z,69.62
2022-12-07T15:05:37.876Z,69.90
2022-12-07T15:08:05.034Z,69.90
2022-12-07T15:10:34.406Z,69.95
2022-12-07T15:13:27.747Z,70.32
2022-12-07T15:16:01.726Z,70.60
2022-12-07T15:18:28.794Z,70.74
2022-12-07T15:20:56.928Z,70.89
2022-12-07T15:23:24.591Z,70.92
2022-12-07T15:25:52.039Z,70.93
2022-12-07T15:28:19.176Z,70.68
2022-12-07T15:30:46.761Z,70.99
2022-12-07T15:33:15.837Z,71.26
2022-12-07T15:35:44.246Z,71.38
2022-12-07T15:38:11.776Z,71.27
2022-12-07T15:40:38.842Z,71.32
2022-12-07T15:43:26.385Z,71.55
2022-12-07T15:45:53.564Z,71.58
2022-12-07T15:48:29.147Z,71.63
2022-12-07T15:51:04.854Z,71.44
2022-12-07T15:53:31.825Z,72.00
2022-12-07T15:55:59.032Z,72.06
2022-12-07T15:58:26.411Z,71.89
2022-12-07T16:00:54.513Z,72.13
2022-12-07T16:03:24.416Z,72.35
2022-12-07T16:05:52.949Z,72.73
2022-12-07T16:08:21.234Z,72.76
2022-12-07T16:10:49.632Z,72.85
2022-12-07T16:13:19.401Z,72.99
2022-12-07T16:15:51.792Z,73.20
2022-12-07T16:18:19.313Z,73.30
2022-12-07T16:20:49.736Z,73.16
2022-12-07T16:23:22.135Z,73.23
2022-12-07T16:25:49.984Z,73.51
2022-12-07T16:28:17.100Z,73.59
2022-12-07T16:30:44.048Z,73.82
2022-12-07T16:33:11.657Z,74.02
2022-12-07T16:35:45.041Z,74.19
2022-12-07T16:38:12.442Z,74.43
2022-12-07T16:40:40.275Z,74.00
2022-12-07T16:43:07.703Z,74.12
2022-12-07T16:45:39.929Z,74.33
2022-12-07T16:48:07.049Z,74.37
2022-12-07T16:50:34.610Z,74.27
2022-12-07T16:53:01.953Z,74.52
2022-12-07T16:55:29.078Z,74.86
2022-12-07T16:57:56.284Z,74.93
2022-12-07T17:00:23.319Z,74.72
2022-12-07T17:02:50.467Z,75.06
2022-12-07T17:05:17.702Z,75.14
2022-12-07T17:07:44.847Z,75.02
2022-12-07T17:10:12.316Z,75.15
2022-12-07T17:12:40.191Z,75.33
2022-12-07T17:15:28.018Z,75.25
2022-12-07T17:18:03.671Z,75.33
2022-12-07T17:20:30.736Z,75.14
2022-12-07T17:22:57.860Z,75.22
2022-12-07T17:25:25.136Z,74.99
2022-12-07T17:30:42.855Z,75.42
2022-12-07T17:36:24.842Z,75.75
2022-12-07T17:39:03.159Z,75.84
2022-12-07T17:41:49.052Z,75.76
2022-12-07T17:44:19.536Z,75.85
2022-12-07T17:49:31.543Z,76.07
2022-12-07T17:52:17.064Z,76.09
2022-12-07T17:54:47.446Z,75.99
2022-12-07T17:57:15.156Z,75.99
2022-12-07T17:59:42.385Z,76.14
2022-12-07T18:05:17.194Z,76.42
2022-12-07T18:07:51.801Z,76.53
2022-12-07T18:10:20.050Z,76.50
2022-12-07T18:12:52.005Z,76.39
2022-12-07T18:15:20.409Z,76.41
2022-12-07T18:17:49.675Z,76.46
2022-12-07T18:20:21.235Z,76.98
2022-12-07T18:22:49.394Z,77.00
2022-12-07T18:25:20.985Z,77.18
2022-12-07T18:27:58.466Z,77.19
2022-12-07T18:33:24.112Z,77.23
2022-12-07T18:35:51.410Z,77.24
2022-12-07T18:38:18.945Z,77.19
2022-12-07T18:40:49.290Z,77.14
2022-12-07T18:43:16.558Z,77.22
2022-12-07T18:45:54.311Z,77.23
2022-12-07T18:48:24.005Z,77.16
2022-12-07T18:51:07.851Z,77.58
2022-12-07T18:53:35.820Z,77.26
2022-12-07T18:56:09.628Z,77.49
2022-12-07T18:58:36.834Z,77.79
2022-12-07T19:01:04.046Z,77.57
2022-12-07T19:03:33.676Z,77.89
2022-12-07T19:06:07.419Z,77.89
2022-12-07T19:08:45.294Z,78.04
2022-12-07T19:11:41.049Z,78.21
2022-12-07T19:14:08.352Z,78.16
2022-12-07T19:16:54.458Z,78.33
2022-12-07T19:19:24.030Z,78.53
2022-12-07T19:21:51.414Z,78.67
2022-12-07T19:24:23.135Z,78.49
2022-12-07T19:26:59.022Z,78.47
2022-12-07T19:29:28.274Z,78.54
2022-12-07T19:32:02.902Z,78.23
2022-12-07T19:34:29.922Z,78.74
2022-12-07T19:36:59.248Z,78.72
2022-12-07T19:39:26.291Z,78.78
2022-12-07T19:41:54.016Z,78.63
2022-12-07T19:44:25.967Z,78.72
2022-12-07T19:47:04.247Z,78.89
2022-12-07T19:49:35.851Z,78.92
2022-12-07T19:52:06.059Z,79.00
2022-12-07T19:54:35.115Z,79.07
2022-12-07T19:57:05.174Z,79.03
2022-12-07T19:59:32.284Z,78.84
2022-12-07T20:01:59.861Z,79.08
2022-12-07T20:04:32.807Z,79.15
2022-12-07T20:07:01.129Z,79.16
2022-12-07T20:09:28.236Z,79.15
2022-12-07T20:12:21.939Z,79.22
2022-12-07T20:14:49.598Z,79.25
2022-12-07T20:17:16.839Z,79.44
2022-12-07T20:19:44.297Z,79.42
2022-12-07T20:24:54.470Z,79.43
2022-12-07T20:27:21.465Z,79.34
2022-12-07T20:29:50.884Z,79.49
2022-12-07T20:32:18.074Z,79.58
2022-12-07T20:34:46.966Z,79.71
2022-12-07T20:37:13.911Z,79.35
2022-12-07T20:39:41.159Z,79.58
2022-12-07T20:42:27.762Z,79.60
2022-12-07T20:44:58.259Z,79.31
2022-12-07T20:47:31.830Z,79.46
2022-12-07T20:49:59.034Z,79.50
2022-12-07T20:52:27.295Z,79.65
2022-12-07T20:54:54.661Z,79.36
2022-12-07T20:57:21.687Z,79.44
2022-12-07T20:59:48.633Z,79.11
2022-12-07T21:02:15.569Z,78.90
2022-12-07T21:04:42.866Z,78.73
2022-12-07T21:07:13.143Z,78.73
2022-12-07T21:09:40.158Z,78.87
2022-12-07T21:12:11.476Z,78.80
2022-12-07T21:14:42.314Z,78.85
2022-12-07T21:17:09.667Z,78.43
2022-12-07T21:19:37.245Z,78.43
2022-12-07T21:22:04.859Z,78.16
2022-12-07T21:24:32.169Z,77.88
2022-12-07T21:29:44.568Z,77.64
2022-12-07T21:32:14.638Z,77.33
2022-12-07T21:34:41.834Z,77.20
2022-12-07T21:37:08.764Z,77.26
2022-12-07T21:39:35.898Z,77.15
2022-12-07T21:42:02.893Z,76.81
2022-12-07T21:44:29.873Z,77.11
2022-12-07T21:46:57.165Z,77.19
2022-12-07T21:49:24.152Z,77.03
2022-12-07T21:51:51.163Z,76.74
2022-12-07T21:54:22.782Z,76.57
2022-12-07T21:56:52.790Z,76.80
2022-12-07T21:59:21.405Z,76.84
2022-12-07T22:01:49.451Z,76.80
2022-12-07T22:04:23.065Z,77.02
2022-12-07T22:06:51.088Z,76.80
2022-12-07T22:09:19.017Z,77.05
2022-12-07T22:11:46.690Z,77.24
2022-12-07T22:14:32.695Z,77.42
2022-12-07T22:16:59.819Z,77.75
2022-12-07T22:19:27.217Z,78.08
2022-12-07T22:21:54.320Z,78.22
2022-12-07T22:24:26.583Z,77.94
2022-12-07T22:26:53.673Z,78.40
2022-12-07T22:29:30.183Z,78.50
2022-12-07T22:31:57.195Z,78.46
2022-12-07T22:34:24.255Z,78.46
2022-12-07T22:36:51.618Z,78.49
2022-12-07T22:39:18.681Z,78.75
2022-12-07T22:41:45.654Z,78.83
2022-12-07T22:44:12.756Z,78.92
2022-12-07T22:46:40.907Z,79.01
2022-12-07T22:49:08.095Z,79.09
2022-12-07T22:51:37.071Z,79.07
2022-12-07T22:54:06.576Z,79.09
2022-12-07T22:56:36.161Z,79.00
2022-12-07T22:59:04.372Z,79.17
2022-12-07T23:01:31.399Z,79.33
2022-12-07T23:03:58.786Z,79.38
2022-12-07T23:06:27.986Z,79.65
2022-12-07T23:08:59.991Z,79.73
2022-12-07T23:11:48.974Z,79.60
2022-12-07T23:14:36.311Z,79.51
2022-12-07T23:17:04.240Z,79.69
2022-12-07T23:19:31.184Z,79.59
2022-12-07T23:21:58.162Z,79.41
2022-12-07T23:24:25.386Z,79.47
2022-12-07T23:26:52.662Z,79.55
2022-12-07T23:29:19.658Z,79.63
2022-12-07T23:31:48.038Z,79.79
2022-12-07T23:34:15.476Z,79.65
2022-12-07T23:36:42.677Z,79.87
2022-12-07T23:39:10.567Z,79.85
2022-12-07T23:41:38.274Z,79.63
2022-12-07T23:44:05.304Z,79.66
2022-12-07T23:46:33.321Z,79.66
2022-12-07T23:49:02.157Z,79.40
2022-12-07T23:51:29.308Z,79.55
2022-12-07T23:53:57.678Z,79.50
2022-12-07T23:56:27.486Z,79.53
2022-12-07T23:58:55.491Z,79.45
